Flight Track Log - Related Links

Times and Time Zones

All times are in EST time to prevent confusion due to time zone crossing. See the CHQ5290 flight status page for this flight to view local times or setup timezone preferences in your user account.

Time Position Orientation Groundspeed Altitude Reporting Facility
EST Latitude Longitude Course Direction KTS MPH feet Rate Location/Type
Thu 08:25:26 AM 40.6853 -89.7336 North 153 176 2,500  Level Chicago Center
Thu 08:26:28 AM 40.7383 -89.7325 North 220 253 4,800 2,439 Climbing Chicago Center
Thu 08:27:29 AM 40.8022 -89.7097 15° North 235 270 7,500 2,683 Climbing Chicago Center
Thu 08:28:00 AM 40.9384 -89.6237 11° North  Level FlightAware Approximate
Thu 08:28:31 AM 40.8714 -89.6861 14° North 251 289 10,300  Level Chicago Center
Thu 08:29:00 AM 41.0107 -89.6079 North  Level FlightAware Approximate
Thu 08:29:33 AM 40.9436 -89.6608 15° North 263 303 12,800  Level Chicago Center
Thu 08:30:00 AM 41.0833 -89.5945 North  Level FlightAware Approximate
Thu 08:30:34 AM 41.0436 -89.6256 15° North 313 360 13,100  Level Chicago Center
Thu 08:31:36 AM 41.1336 -89.5964 14° North 332 382 13,100  Level Chicago Center
Thu 08:32:38 AM 41.1975 -89.5067 47° Northeast 354 407 13,100  Level Chicago Center
Thu 08:33:39 AM 41.2414 -89.3903 63° Northeast 353 406 13,100  Level Chicago Center
Thu 08:34:41 AM 41.2864 -89.2794 62° Northeast 343 395 13,100  Level Chicago Center
Thu 08:35:43 AM 41.3347 -89.1528 63° Northeast 336 387 13,100 -195 Level Chicago Center
Thu 08:36:44 AM 41.3803 -89.0389 62° Northeast 347 399 12,700 -488 Descending Chicago Center
Thu 08:37:46 AM 41.4317 -88.9108 62° Northeast 386 444 12,100 -339 Descending Chicago Center
Thu 08:38:48 AM 41.4822 -88.7811 62° Northeast 393 452 12,000  Descending Chicago Center
Thu 08:39:50 AM 41.5333 -88.6539 62° Northeast 390 449 12,100 49 Climbing Chicago Center
Thu 08:40:51 AM 41.5900 -88.5294 59° Northeast 392 451 12,100 -341 Level Chicago Center
Thu 08:41:53 AM 41.6517 -88.4192 53° Northeast 369 425 11,400 -1,065 Descending Chicago Center
Thu 08:42:55 AM 41.7031 -88.3256 54° Northeast 314 361 9,900 -1,597 Descending Chicago Center
Thu 08:43:57 AM 41.7597 -88.2203 54° Northeast 289 333 8,100 -1,415 Descending Chicago Center
Thu 08:44:58 AM 41.8061 -88.1358 54° Northeast 282 325 7,000 -537 Descending Chicago Center
Thu 08:46:00 AM 41.8500 -88.0533 54° Northeast 274 315 7,000  Level Chicago Center
Thu 08:47:02 AM 41.8856 -87.9628 62° Northeast 284 327 7,000  Level Chicago Center
Thu 08:47:47 AM 41.8833 -87.8833 92° East 288 331 7,000  Level Chicago TRACON
Thu 08:48:47 AM 41.8833 -87.7667 90° East 290 334 7,000  Level Chicago TRACON
Thu 08:49:41 AM 41.8833 -87.6667 90° East 285 328 7,000 -421 Level Chicago TRACON
Thu 08:50:41 AM 41.8833 -87.5667 90° East 281 323 6,200 -474 Descending Chicago TRACON
Thu 08:51:35 AM 41.8833 -87.4833 90° East 250 288 6,100 -133 Descending Chicago TRACON
Thu 08:52:11 AM 41.8836 -87.4261 90° East 262 302 6,000 -245 Descending Chicago Center
Thu 08:53:13 AM 41.8908 -87.3358 84° East 252 290 5,700 -488 Descending Chicago Center
Thu 08:54:14 AM 41.9503 -87.3308 North 231 266 5,000 -341 Descending Chicago Center
Thu 08:55:16 AM 41.9653 -87.3992 286° West 195 224 5,000  Level Chicago Center
Thu 08:56:18 AM 41.9664 -87.4736 271° West 196 226 5,000  Level Chicago Center
Thu 08:57:20 AM 41.9664 -87.5411 270° West 193 222 5,000  Level Chicago Center
Thu 08:58:21 AM 41.9658 -87.6019 269° West 180 207 5,000 -387 Level Chicago Center
Thu 08:59:24 AM 41.9667 -87.6667 271° West 154 177 4,200 -821 Descending Chicago TRACON
Thu 09:00:18 AM 41.9667 -87.7167 270° West 160 184 3,400 -947 Descending Chicago TRACON
Thu 09:01:18 AM 41.9667 -87.7833 270° West 165 190 2,400 -895 Descending Chicago TRACON
Thu 09:02:12 AM 41.9667 -87.8333 270° West 120 138 1,700 -737 Descending Chicago TRACON
Thu 09:03:12 AM 41.9667 -87.8667 270° West 117 135 1,000 -700 Descending Chicago TRACON

Login

Don't have an account? Register now (free) for customized features, flight alerts, and more!